Kota Kinabalu, Malaysia
Current Conditions -  °F | °C
As of 2:00 PM on Monday 22 Dec 2014 (Local Time) from WBKK Reporting Station
Broken Clouds Broken Clouds  
Wind Chill: 88°   Ceiling: 28000
Heat Index: 105°   Visibility: 6mi
Dew Point: 81°   Wind: 3mph
Humidity: 79%   Direction: 240°WSW
Pressure: 29.71"   Gusts: NA
Location:  5.97°N, 116.07°E
Report Text: WBKK 220600Z 24003KT 9999 FEW014 SCT140 BKN280 31/27 Q1006 NOSIG
Loading
Personal Weather Stations






























Interactive Weather Map New forecast layout! Learn more

10-Day Weather Forecast

Advertisements
Track Severe Weather on mobile